Aşgabat, Türkmenistan

Saat: 11:31 AM TMT Tarih: 21 Nisan 2015 (GMT +0500)
Ashgabat | | Change Station
CLOSE
Current Station
Hava Meydanı
Location: Ashgabat,
Yükseklik: 689 ft
Nearby Weather Stations

Elev 689 ft 37.98 °N, 58.37 °E | Updated 31 minutes ago

Clear
Açık
79
Feels Like 79
N
7
Rüzgar Değişken Rüzgar from KB

Bugün
High -- | Low -- F°
--% Chance of Precip.
Dün
High -- | Low -- F°
Precip. -- inç
6:23 AM 7:47 PM
Hilal, 8% visible
Basınç 29.83 inç
Görüş Uzaklığı 6.2 mil
Bulutlar Açık
Çiğ noktası 45
Nem oranı 30%
Yağış 0.00 inç
Kar Kalınlığı Not available.
7 out of 12
Pollen Not available.
Hava Kalitesi Not available.
Flu Activity Not available.
METAR UTAA 210600Z 31003MPS 270V350 9999 SKC 26/07 Q1010 R30/CLRD70 NOSIG

More Conditions Fewer Conditions

Basınç 29.83 inç
Görüş Uzaklığı 6.2 mil
Bulutlar Açık
Çiğ noktası 45
Nem oranı 30%
Yağış 0.00 inç
Kar Kalınlığı Not available.
7 out of 12
Pollen Not available.
Hava Kalitesi Not available.
Flu Activity Not available.
METAR UTAA 210600Z 31003MPS 270V350 9999 SKC 26/07 Q1010 R30/CLRD70 NOSIG

More Conditions Fewer Conditions

10-Day Weather Forecast

Almanac

Gökbilim

Apr. 21, 2015 Rise Set
Gerçek Zaman
Günlük Tan
Deniz Tanı
Geceyarısı Yıldız Zamanı
Ay
Görünür Işığın Uzunluğu
Günün Uzunluğu
Tomorrow will be .
, % of the Moon is Illuminated

Günün En Yüksekleri

Country Highs Country Lows

Community

WunderPhotos

Upload Photos

1,815,320 photos uploaded!

WunderBlogs® & News

Nearby

Hava Kalitesi

  Hava Kalitesi Hava Kalitesi Endeksi Kirletici
Not available.

Kar Kalınlığı

Station Depth Yükseklik

Earthquake Activity

Şehir Distance Mag. Time & Date
Minimum magnitude displayed is 2.5.

Coastal Water Temperatures

Yer Sıcaklık

Stations

Nearby Weather Stations

Station Location Sıcaklık Rüzgar Etkisi Çiğ noktası Nem oranı Rüzgar Precip. Elev Güncellenme Zamanı Biçim